createdAt,value
2018-03-02T00:01:54.108Z,5.10
2018-03-02T00:04:20.112Z,5.20
2018-03-02T00:06:46.144Z,5.00
2018-03-02T00:09:12.163Z,5.00
2018-03-02T00:11:38.152Z,4.90
2018-03-02T00:14:04.159Z,5.20
2018-03-02T00:16:30.185Z,4.90
2018-03-02T00:18:56.266Z,5.10
2018-03-02T00:21:22.287Z,4.80
2018-03-02T00:23:48.336Z,4.80
2018-03-02T00:26:14.348Z,4.90
2018-03-02T00:28:40.399Z,4.90
2018-03-02T00:31:06.387Z,4.90
2018-03-02T00:33:32.396Z,4.80
2018-03-02T00:35:58.440Z,4.70
2018-03-02T00:38:24.448Z,4.70
2018-03-02T00:40:50.477Z,4.60
2018-03-02T00:43:16.503Z,4.50
2018-03-02T00:45:42.525Z,4.50
2018-03-02T00:48:08.699Z,4.20
2018-03-02T00:50:34.706Z,4.60
2018-03-02T00:53:00.712Z,4.40
2018-03-02T00:55:26.755Z,4.40
2018-03-02T00:57:52.755Z,4.60
2018-03-02T01:00:18.799Z,4.70
2018-03-02T01:02:44.800Z,4.60
2018-03-02T01:05:10.817Z,4.60
2018-03-02T01:07:36.875Z,4.60
2018-03-02T01:10:02.893Z,4.50
2018-03-02T01:12:29.001Z,4.60
2018-03-02T01:14:55.015Z,4.60
2018-03-02T01:17:21.048Z,4.50
2018-03-02T01:19:47.065Z,4.50
2018-03-02T01:22:13.118Z,4.40
2018-03-02T01:24:39.135Z,4.40
2018-03-02T01:27:05.168Z,4.30
2018-03-02T01:29:31.187Z,4.40
2018-03-02T01:31:57.189Z,4.30
2018-03-02T01:34:23.196Z,4.40
2018-03-02T01:36:49.201Z,4.40
2018-03-02T01:39:15.247Z,4.30
2018-03-02T01:41:41.243Z,4.60
2018-03-02T01:44:07.272Z,4.30
2018-03-02T01:46:33.271Z,4.60
2018-03-02T01:48:59.310Z,4.60
2018-03-02T01:51:25.301Z,4.70
2018-03-02T01:53:51.365Z,4.50
2018-03-02T01:56:17.408Z,4.60
2018-03-02T01:58:43.463Z,4.20
2018-03-02T02:01:09.492Z,4.30
2018-03-02T02:03:35.499Z,4.30
2018-03-02T02:06:01.538Z,4.20
2018-03-02T02:08:27.541Z,4.10
2018-03-02T02:10:53.587Z,3.90
2018-03-02T02:13:19.587Z,3.80
2018-03-02T02:15:45.611Z,3.60
2018-03-02T02:18:11.655Z,3.70
2018-03-02T02:20:37.688Z,3.80
2018-03-02T02:23:03.681Z,3.90
2018-03-02T02:25:29.701Z,3.90
2018-03-02T02:27:55.707Z,3.90
2018-03-02T02:30:21.711Z,3.80
2018-03-02T02:32:47.738Z,3.80
2018-03-02T02:35:13.731Z,3.80
2018-03-02T02:37:39.765Z,4.10
2018-03-02T02:40:05.767Z,4.20
2018-03-02T02:42:31.792Z,4.20
2018-03-02T02:44:57.880Z,4.00
2018-03-02T02:47:23.940Z,3.90
2018-03-02T02:49:49.968Z,4.00
2018-03-02T02:52:16.003Z,4.00
2018-03-02T02:54:42.003Z,4.10
2018-03-02T02:57:08.000Z,4.20
2018-03-02T02:59:34.023Z,4.00
2018-03-02T03:02:00.152Z,4.00
2018-03-02T03:04:26.176Z,3.80
2018-03-02T03:06:52.173Z,3.90
2018-03-02T03:09:18.212Z,3.90
2018-03-02T03:11:44.217Z,3.90
2018-03-02T03:14:10.416Z,3.90
2018-03-02T03:16:36.410Z,3.90
2018-03-02T03:19:02.434Z,4.00
2018-03-02T03:21:28.435Z,4.00
2018-03-02T03:23:54.457Z,3.80
2018-03-02T03:26:20.516Z,4.00
2018-03-02T03:28:46.512Z,3.70
2018-03-02T03:31:12.528Z,3.90
2018-03-02T03:33:38.550Z,3.60
2018-03-02T03:36:04.581Z,3.60
2018-03-02T03:38:30.576Z,3.70
2018-03-02T03:40:56.588Z,3.70
2018-03-02T03:43:22.683Z,3.80
2018-03-02T03:45:48.738Z,3.80
2018-03-02T03:48:14.738Z,3.80
2018-03-02T03:50:40.751Z,3.60
2018-03-02T03:53:06.780Z,3.50
2018-03-02T03:55:32.806Z,3.40
2018-03-02T03:57:58.839Z,3.80
2018-03-02T04:00:24.847Z,3.80
